sensor_id;sensor_type;location;lat;lon;timestamp;pressure;altitude;pressure_sealevel;temperature;humidity
21236;BME280;10775;42.678;26.324;2022-09-12T00:01:05;98180.66;;;19.76;71.29
21236;BME280;10775;42.678;26.324;2022-09-12T00:03:31;98166.63;;;20.93;67.70
21236;BME280;10775;42.678;26.324;2022-09-12T00:05:57;98163.31;;;21.15;66.55
21236;BME280;10775;42.678;26.324;2022-09-12T00:08:22;98164.06;;;20.00;70.41
21236;BME280;10775;42.678;26.324;2022-09-12T00:10:48;98152.84;;;19.28;66.71
21236;BME280;10775;42.678;26.324;2022-09-12T00:13:14;98152.47;;;19.61;71.96
21236;BME280;10775;42.678;26.324;2022-09-12T00:15:43;98155.75;;;18.52;73.04
21236;BME280;10775;42.678;26.324;2022-09-12T00:18:12;98160.78;;;19.14;70.00
21236;BME280;10775;42.678;26.324;2022-09-12T00:20:42;98166.09;;;18.99;68.52
21236;BME280;10775;42.678;26.324;2022-09-12T00:23:09;98170.50;;;19.27;69.79
21236;BME280;10775;42.678;26.324;2022-09-12T00:25:42;98158.25;;;18.98;68.38
21236;BME280;10775;42.678;26.324;2022-09-12T00:28:09;98155.50;;;18.99;72.93
21236;BME280;10775;42.678;26.324;2022-09-12T00:30:42;98150.06;;;19.29;69.21
21236;BME280;10775;42.678;26.324;2022-09-12T00:33:09;98154.19;;;18.92;71.31
21236;BME280;10775;42.678;26.324;2022-09-12T00:35:43;98142.38;;;19.39;71.28
21236;BME280;10775;42.678;26.324;2022-09-12T00:38:10;98122.72;;;20.36;67.43
21236;BME280;10775;42.678;26.324;2022-09-12T00:40:36;98136.28;;;20.06;66.49
21236;BME280;10775;42.678;26.324;2022-09-12T00:43:01;98129.72;;;20.37;66.07
21236;BME280;10775;42.678;26.324;2022-09-12T00:45:28;98146.91;;;19.51;69.28
21236;BME280;10775;42.678;26.324;2022-09-12T00:47:55;98138.78;;;19.82;68.09
21236;BME280;10775;42.678;26.324;2022-09-12T00:50:23;98148.78;;;20.56;67.67
21236;BME280;10775;42.678;26.324;2022-09-12T00:52:56;98140.66;;;20.32;65.97
21236;BME280;10775;42.678;26.324;2022-09-12T00:55:29;98147.72;;;20.72;65.77
21236;BME280;10775;42.678;26.324;2022-09-12T01:00:28;98155.91;;;19.76;68.48
21236;BME280;10775;42.678;26.324;2022-09-12T01:03:05;98159.75;;;19.72;66.69
21236;BME280;10775;42.678;26.324;2022-09-12T01:05:34;98155.97;;;20.41;67.85
21236;BME280;10775;42.678;26.324;2022-09-12T01:08:04;98161.44;;;19.73;68.97
21236;BME280;10775;42.678;26.324;2022-09-12T01:10:33;98150.63;;;21.68;63.26
21236;BME280;10775;42.678;26.324;2022-09-12T01:13:00;98144.81;;;20.36;62.31
21236;BME280;10775;42.678;26.324;2022-09-12T01:15:27;98148.34;;;19.84;66.64
21236;BME280;10775;42.678;26.324;2022-09-12T01:18:11;98141.28;;;20.10;66.74
21236;BME280;10775;42.678;26.324;2022-09-12T01:27:06;98134.09;;;19.31;69.57
21236;BME280;10775;42.678;26.324;2022-09-12T01:32:30;98132.63;;;20.85;65.96
21236;BME280;10775;42.678;26.324;2022-09-12T01:37:45;98125.44;;;19.96;67.30
21236;BME280;10775;42.678;26.324;2022-09-12T01:40:26;98106.47;;;19.48;66.59
21236;BME280;10775;42.678;26.324;2022-09-12T01:43:40;98100.19;;;20.03;67.50
21236;BME280;10775;42.678;26.324;2022-09-12T01:45:58;98084.13;;;19.52;67.21
21236;BME280;10775;42.678;26.324;2022-09-12T01:48:35;98076.63;;;19.98;66.32
21236;BME280;10775;42.678;26.324;2022-09-12T01:53:59;98101.69;;;21.34;61.46
21236;BME280;10775;42.678;26.324;2022-09-12T01:56:31;98097.34;;;21.57;59.62
21236;BME280;10775;42.678;26.324;2022-09-12T01:59:13;98107.78;;;21.23;63.37
21236;BME280;10775;42.678;26.324;2022-09-12T02:02:00;98128.72;;;21.27;63.02
21236;BME280;10775;42.678;26.324;2022-09-12T02:04:52;98136.06;;;21.61;62.19
21236;BME280;10775;42.678;26.324;2022-09-12T02:07:30;98136.81;;;21.13;62.61
21236;BME280;10775;42.678;26.324;2022-09-12T02:10:17;98121.03;;;20.48;62.76
21236;BME280;10775;42.678;26.324;2022-09-12T02:12:49;98120.09;;;20.49;65.16
21236;BME280;10775;42.678;26.324;2022-09-12T02:15:19;98115.94;;;20.70;65.22
21236;BME280;10775;42.678;26.324;2022-09-12T02:17:49;98114.16;;;21.20;62.74
21236;BME280;10775;42.678;26.324;2022-09-12T02:20:33;98118.25;;;20.11;65.71
21236;BME280;10775;42.678;26.324;2022-09-12T02:23:03;98115.19;;;19.77;65.99
21236;BME280;10775;42.678;26.324;2022-09-12T02:25:33;98109.34;;;18.60;69.40
21236;BME280;10775;42.678;26.324;2022-09-12T02:28:24;98101.09;;;18.51;71.76
21236;BME280;10775;42.678;26.324;2022-09-12T02:31:27;98095.38;;;18.87;70.88
21236;BME280;10775;42.678;26.324;2022-09-12T02:39:43;98082.44;;;19.51;68.42
21236;BME280;10775;42.678;26.324;2022-09-12T02:42:09;98089.19;;;20.60;65.12
21236;BME280;10775;42.678;26.324;2022-09-12T02:44:35;98094.28;;;20.38;66.85
21236;BME280;10775;42.678;26.324;2022-09-12T02:47:09;98095.25;;;20.62;64.44
21236;BME280;10775;42.678;26.324;2022-09-12T02:49:36;98092.88;;;19.13;67.67
21236;BME280;10775;42.678;26.324;2022-09-12T02:52:02;98098.19;;;18.55;70.27
21236;BME280;10775;42.678;26.324;2022-09-12T02:54:28;98109.75;;;18.97;70.79
21236;BME280;10775;42.678;26.324;2022-09-12T02:56:54;98089.56;;;18.66;70.95
21236;BME280;10775;42.678;26.324;2022-09-12T02:59:21;98088.75;;;20.54;65.49
21236;BME280;10775;42.678;26.324;2022-09-12T03:02:12;98076.94;;;20.07;66.98
21236;BME280;10775;42.678;26.324;2022-09-12T03:04:47;98084.84;;;20.59;65.18
21236;BME280;10775;42.678;26.324;2022-09-12T03:12:55;98096.25;;;20.09;67.17
21236;BME280;10775;42.678;26.324;2022-09-12T03:18:23;98105.41;;;19.50;66.78
21236;BME280;10775;42.678;26.324;2022-09-12T03:24:04;98093.19;;;19.89;63.54
21236;BME280;10775;42.678;26.324;2022-09-12T03:29:25;98092.81;;;19.00;65.71
21236;BME280;10775;42.678;26.324;2022-09-12T03:31:53;98077.91;;;20.18;66.83
21236;BME280;10775;42.678;26.324;2022-09-12T03:34:20;98074.66;;;19.48;66.44
21236;BME280;10775;42.678;26.324;2022-09-12T03:36:47;98091.91;;;19.14;66.77
21236;BME280;10775;42.678;26.324;2022-09-12T03:39:13;98097.66;;;20.14;65.96
21236;BME280;10775;42.678;26.324;2022-09-12T03:41:39;98086.84;;;20.05;65.12
21236;BME280;10775;42.678;26.324;2022-09-12T03:44:05;98084.53;;;19.04;66.51
21236;BME280;10775;42.678;26.324;2022-09-12T03:46:30;98074.97;;;19.70;63.70
21236;BME280;10775;42.678;26.324;2022-09-12T03:48:56;98088.84;;;19.20;66.29
21236;BME280;10775;42.678;26.324;2022-09-12T03:51:21;98081.47;;;19.79;66.07
21236;BME280;10775;42.678;26.324;2022-09-12T03:53:47;98080.63;;;19.51;65.81
21236;BME280;10775;42.678;26.324;2022-09-12T03:56:13;98074.28;;;19.54;68.19
21236;BME280;10775;42.678;26.324;2022-09-12T03:58:39;98071.81;;;19.78;64.93
21236;BME280;10775;42.678;26.324;2022-09-12T04:01:13;98077.31;;;20.40;61.72
21236;BME280;10775;42.678;26.324;2022-09-12T04:03:40;98069.75;;;19.15;64.91
21236;BME280;10775;42.678;26.324;2022-09-12T04:06:07;98054.25;;;19.63;66.57
21236;BME280;10775;42.678;26.324;2022-09-12T04:08:34;98053.91;;;20.84;61.30
21236;BME280;10775;42.678;26.324;2022-09-12T04:11:09;98057.53;;;19.93;62.32
21236;BME280;10775;42.678;26.324;2022-09-12T04:13:36;98062.25;;;18.65;66.52
21236;BME280;10775;42.678;26.324;2022-09-12T04:16:02;98044.78;;;20.11;65.35
21236;BME280;10775;42.678;26.324;2022-09-12T04:18:29;98053.50;;;20.26;63.96
21236;BME280;10775;42.678;26.324;2022-09-12T04:20:55;98055.06;;;19.50;65.57
21236;BME280;10775;42.678;26.324;2022-09-12T04:23:20;98068.34;;;19.90;66.85
21236;BME280;10775;42.678;26.324;2022-09-12T04:25:56;98059.22;;;19.82;64.93
21236;BME280;10775;42.678;26.324;2022-09-12T04:28:23;98066.16;;;20.23;60.16
21236;BME280;10775;42.678;26.324;2022-09-12T04:30:49;98066.97;;;18.89;67.48
21236;BME280;10775;42.678;26.324;2022-09-12T04:33:15;98062.78;;;19.68;64.09
21236;BME280;10775;42.678;26.324;2022-09-12T04:35:41;98065.06;;;19.60;65.11
21236;BME280;10775;42.678;26.324;2022-09-12T04:38:07;98074.91;;;18.89;63.81
21236;BME280;10775;42.678;26.324;2022-09-12T04:40:33;98086.06;;;19.08;67.43
21236;BME280;10775;42.678;26.324;2022-09-12T04:42:59;98080.50;;;18.99;65.52
21236;BME280;10775;42.678;26.324;2022-09-12T04:45:25;98087.31;;;18.74;68.71
21236;BME280;10775;42.678;26.324;2022-09-12T04:47:51;98092.88;;;18.55;64.76
21236;BME280;10775;42.678;26.324;2022-09-12T04:50:17;98098.75;;;18.46;65.04
21236;BME280;10775;42.678;26.324;2022-09-12T04:52:42;98105.81;;;19.17;64.88
21236;BME280;10775;42.678;26.324;2022-09-12T04:55:08;98100.34;;;19.06;66.78
21236;BME280;10775;42.678;26.324;2022-09-12T04:57:34;98087.22;;;19.86;64.58
21236;BME280;10775;42.678;26.324;2022-09-12T05:00:01;98084.59;;;21.25;60.13
21236;BME280;10775;42.678;26.324;2022-09-12T05:02:29;98076.25;;;19.50;61.43
21236;BME280;10775;42.678;26.324;2022-09-12T05:04:54;98078.50;;;19.84;65.67
21236;BME280;10775;42.678;26.324;2022-09-12T05:07:20;98080.75;;;20.92;60.99
21236;BME280;10775;42.678;26.324;2022-09-12T05:09:45;98086.81;;;21.31;59.57
21236;BME280;10775;42.678;26.324;2022-09-12T05:12:11;98070.91;;;20.05;62.60
21236;BME280;10775;42.678;26.324;2022-09-12T05:14:37;98073.16;;;19.71;61.38
21236;BME280;10775;42.678;26.324;2022-09-12T05:17:04;98068.66;;;19.04;64.21
21236;BME280;10775;42.678;26.324;2022-09-12T05:19:30;98075.81;;;20.24;63.08
21236;BME280;10775;42.678;26.324;2022-09-12T05:21:57;98078.97;;;20.03;63.92
21236;BME280;10775;42.678;26.324;2022-09-12T05:24:23;98075.19;;;18.99;62.80
21236;BME280;10775;42.678;26.324;2022-09-12T05:26:49;98066.50;;;19.78;63.07
21236;BME280;10775;42.678;26.324;2022-09-12T05:29:14;98062.09;;;18.83;64.20
21236;BME280;10775;42.678;26.324;2022-09-12T05:31:40;98049.88;;;20.02;60.46
21236;BME280;10775;42.678;26.324;2022-09-12T05:34:06;98074.69;;;19.61;61.88
21236;BME280;10775;42.678;26.324;2022-09-12T05:36:35;98066.44;;;19.92;61.81
21236;BME280;10775;42.678;26.324;2022-09-12T05:39:02;98066.75;;;19.88;61.92
21236;BME280;10775;42.678;26.324;2022-09-12T05:41:30;98075.38;;;20.30;61.57
21236;BME280;10775;42.678;26.324;2022-09-12T05:43:59;98086.78;;;19.79;60.69
21236;BME280;10775;42.678;26.324;2022-09-12T05:46:34;98103.56;;;19.92;65.29
21236;BME280;10775;42.678;26.324;2022-09-12T05:49:04;98095.81;;;19.89;65.20
21236;BME280;10775;42.678;26.324;2022-09-12T05:51:36;98113.16;;;21.34;60.89
21236;BME280;10775;42.678;26.324;2022-09-12T05:54:07;98107.03;;;19.80;62.69
21236;BME280;10775;42.678;26.324;2022-09-12T05:56:37;98102.50;;;19.82;63.73
21236;BME280;10775;42.678;26.324;2022-09-12T05:59:06;98120.50;;;19.08;61.88
21236;BME280;10775;42.678;26.324;2022-09-12T06:01:33;98110.53;;;19.53;62.39
21236;BME280;10775;42.678;26.324;2022-09-12T06:04:00;98105.53;;;20.41;62.52
21236;BME280;10775;42.678;26.324;2022-09-12T06:06:28;98091.78;;;18.88;62.85
21236;BME280;10775;42.678;26.324;2022-09-12T06:08:59;98108.41;;;19.31;62.17
21236;BME280;10775;42.678;26.324;2022-09-12T06:11:27;98093.88;;;19.51;61.75
21236;BME280;10775;42.678;26.324;2022-09-12T06:13:55;98094.97;;;19.62;64.53
21236;BME280;10775;42.678;26.324;2022-09-12T06:16:24;98094.72;;;20.70;58.45
21236;BME280;10775;42.678;26.324;2022-09-12T06:18:52;98078.53;;;20.22;61.87
21236;BME280;10775;42.678;26.324;2022-09-12T06:21:19;98081.63;;;21.30;58.33
21236;BME280;10775;42.678;26.324;2022-09-12T06:23:45;98086.00;;;21.90;58.61
21236;BME280;10775;42.678;26.324;2022-09-12T06:26:17;98084.38;;;20.40;58.11
21236;BME280;10775;42.678;26.324;2022-09-12T06:28:43;98074.94;;;19.97;58.45
21236;BME280;10775;42.678;26.324;2022-09-12T06:31:12;98082.53;;;19.49;60.94
21236;BME280;10775;42.678;26.324;2022-09-12T06:33:40;98085.00;;;19.65;63.29
21236;BME280;10775;42.678;26.324;2022-09-12T06:36:09;98080.03;;;20.90;57.01
21236;BME280;10775;42.678;26.324;2022-09-12T06:38:36;98091.50;;;20.39;58.28
21236;BME280;10775;42.678;26.324;2022-09-12T06:41:06;98087.03;;;20.14;59.67
21236;BME280;10775;42.678;26.324;2022-09-12T06:43:33;98098.94;;;21.59;55.11
21236;BME280;10775;42.678;26.324;2022-09-12T06:45:59;98089.50;;;21.18;60.16
21236;BME280;10775;42.678;26.324;2022-09-12T06:48:25;98100.63;;;19.97;59.33
21236;BME280;10775;42.678;26.324;2022-09-12T06:51:05;98090.22;;;20.83;55.88
21236;BME280;10775;42.678;26.324;2022-09-12T06:53:34;98102.69;;;20.70;56.74
21236;BME280;10775;42.678;26.324;2022-09-12T06:56:09;98104.69;;;22.01;53.63
21236;BME280;10775;42.678;26.324;2022-09-12T06:58:36;98102.41;;;21.36;54.07
21236;BME280;10775;42.678;26.324;2022-09-12T07:03:33;98102.63;;;22.96;50.07
21236;BME280;10775;42.678;26.324;2022-09-12T07:06:07;98113.44;;;20.56;56.39
21236;BME280;10775;42.678;26.324;2022-09-12T07:08:34;98088.94;;;21.63;57.91
21236;BME280;10775;42.678;26.324;2022-09-12T07:11:16;98117.63;;;21.34;54.61
21236;BME280;10775;42.678;26.324;2022-09-12T07:13:45;98105.19;;;21.34;55.56
21236;BME280;10775;42.678;26.324;2022-09-12T07:16:15;98118.75;;;21.55;53.89
21236;BME280;10775;42.678;26.324;2022-09-12T07:18:41;98105.75;;;20.77;57.22
21236;BME280;10775;42.678;26.324;2022-09-12T07:21:12;98108.69;;;21.47;54.52
21236;BME280;10775;42.678;26.324;2022-09-12T07:23:38;98117.75;;;21.32;55.21
21236;BME280;10775;42.678;26.324;2022-09-12T07:26:07;98112.59;;;21.79;53.14
21236;BME280;10775;42.678;26.324;2022-09-12T07:28:34;98101.19;;;20.79;56.07
21236;BME280;10775;42.678;26.324;2022-09-12T07:31:07;98124.41;;;22.10;55.05
21236;BME280;10775;42.678;26.324;2022-09-12T07:33:33;98112.69;;;22.82;51.04
21236;BME280;10775;42.678;26.324;2022-09-12T07:36:27;98108.44;;;22.10;53.01
21236;BME280;10775;42.678;26.324;2022-09-12T07:38:54;98111.59;;;22.84;50.36
21236;BME280;10775;42.678;26.324;2022-09-12T07:41:22;98103.13;;;23.24;48.91
21236;BME280;10775;42.678;26.324;2022-09-12T07:43:54;98100.22;;;23.16;49.56
21236;BME280;10775;42.678;26.324;2022-09-12T07:46:20;98094.53;;;24.59;47.32
21236;BME280;10775;42.678;26.324;2022-09-12T07:48:51;98113.56;;;22.93;49.34
21236;BME280;10775;42.678;26.324;2022-09-12T07:51:18;98101.69;;;22.86;51.59
21236;BME280;10775;42.678;26.324;2022-09-12T07:53:45;98100.50;;;23.02;49.73
21236;BME280;10775;42.678;26.324;2022-09-12T07:56:11;98094.41;;;23.65;47.83
21236;BME280;10775;42.678;26.324;2022-09-12T07:58:39;98099.44;;;23.80;48.41
21236;BME280;10775;42.678;26.324;2022-09-12T08:01:17;98106.88;;;22.65;49.49
21236;BME280;10775;42.678;26.324;2022-09-12T08:03:47;98097.50;;;23.50;49.00
21236;BME280;10775;42.678;26.324;2022-09-12T08:06:16;98085.28;;;23.68;47.49
21236;BME280;10775;42.678;26.324;2022-09-12T08:08:45;98077.00;;;23.50;47.09
21236;BME280;10775;42.678;26.324;2022-09-12T08:11:13;98094.34;;;24.82;47.75
21236;BME280;10775;42.678;26.324;2022-09-12T08:13:40;98095.75;;;25.86;44.30
21236;BME280;10775;42.678;26.324;2022-09-12T08:16:11;98081.53;;;25.86;45.38
21236;BME280;10775;42.678;26.324;2022-09-12T08:18:37;98099.75;;;24.91;44.33
21236;BME280;10775;42.678;26.324;2022-09-12T08:21:14;98095.53;;;25.29;47.29
21236;BME280;10775;42.678;26.324;2022-09-12T08:23:41;98093.72;;;26.27;45.82
21236;BME280;10775;42.678;26.324;2022-09-12T08:26:08;98092.59;;;26.39;42.54
21236;BME280;10775;42.678;26.324;2022-09-12T08:28:35;98092.59;;;24.19;48.76
21236;BME280;10775;42.678;26.324;2022-09-12T08:31:06;98099.44;;;25.25;42.94
21236;BME280;10775;42.678;26.324;2022-09-12T08:33:32;98107.97;;;24.48;44.78
21236;BME280;10775;42.678;26.324;2022-09-12T08:36:06;98105.13;;;25.01;48.41
21236;BME280;10775;42.678;26.324;2022-09-12T08:38:34;98109.88;;;24.57;46.06
21236;BME280;10775;42.678;26.324;2022-09-12T08:44:11;98104.00;;;25.54;43.39
21236;BME280;10775;42.678;26.324;2022-09-12T08:49:29;98114.22;;;24.89;44.70
21236;BME280;10775;42.678;26.324;2022-09-12T08:52:04;98100.78;;;25.10;44.87
21236;BME280;10775;42.678;26.324;2022-09-12T08:54:31;98098.44;;;26.06;45.96
21236;BME280;10775;42.678;26.324;2022-09-12T08:57:01;98108.53;;;25.83;41.25
21236;BME280;10775;42.678;26.324;2022-09-12T08:59:46;98103.31;;;25.71;44.05
21236;BME280;10775;42.678;26.324;2022-09-12T09:02:37;98098.81;;;25.72;44.02
21236;BME280;10775;42.678;26.324;2022-09-12T09:08:10;98090.66;;;26.12;45.14
21236;BME280;10775;42.678;26.324;2022-09-12T09:14:30;98098.97;;;25.99;40.18
21236;BME280;10775;42.678;26.324;2022-09-12T09:16:55;98099.56;;;26.79;43.12
21236;BME280;10775;42.678;26.324;2022-09-12T09:19:36;98099.34;;;26.53;44.84
21236;BME280;10775;42.678;26.324;2022-09-12T09:22:39;98098.50;;;26.53;44.59
21236;BME280;10775;42.678;26.324;2022-09-12T09:25:00;98087.25;;;26.30;44.34
21236;BME280;10775;42.678;26.324;2022-09-12T09:28:14;98071.50;;;25.78;43.58
21236;BME280;10775;42.678;26.324;2022-09-12T09:30:21;98076.59;;;26.00;40.85
21236;BME280;10775;42.678;26.324;2022-09-12T09:32:52;98086.41;;;25.80;43.89
21236;BME280;10775;42.678;26.324;2022-09-12T09:35:43;98082.91;;;26.19;41.69
21236;BME280;10775;42.678;26.324;2022-09-12T09:43:36;98071.13;;;26.49;43.56
21236;BME280;10775;42.678;26.324;2022-09-12T09:46:02;98076.41;;;26.12;44.47
21236;BME280;10775;42.678;26.324;2022-09-12T09:48:31;98079.81;;;25.94;44.68
21236;BME280;10775;42.678;26.324;2022-09-12T09:50:59;98070.53;;;25.98;46.37
21236;BME280;10775;42.678;26.324;2022-09-12T09:53:33;98080.22;;;25.99;48.68
21236;BME280;10775;42.678;26.324;2022-09-12T09:56:04;98078.25;;;26.11;44.40
21236;BME280;10775;42.678;26.324;2022-09-12T09:58:33;98093.19;;;26.23;49.01
21236;BME280;10775;42.678;26.324;2022-09-12T10:01:14;98091.94;;;25.98;45.95
21236;BME280;10775;42.678;26.324;2022-09-12T10:03:47;98091.22;;;26.06;48.15
21236;BME280;10775;42.678;26.324;2022-09-12T10:06:24;98090.81;;;25.91;42.00
21236;BME280;10775;42.678;26.324;2022-09-12T10:08:50;98082.91;;;25.90;41.14
21236;BME280;10775;42.678;26.324;2022-09-12T10:11:28;98087.97;;;25.73;47.40
21236;BME280;10775;42.678;26.324;2022-09-12T10:13:56;98100.22;;;25.76;48.63
21236;BME280;10775;42.678;26.324;2022-09-12T10:16:28;98131.22;;;25.78;48.38
21236;BME280;10775;42.678;26.324;2022-09-12T10:18:55;98107.94;;;25.50;50.81
21236;BME280;10775;42.678;26.324;2022-09-12T10:21:25;98089.66;;;25.55;41.98
21236;BME280;10775;42.678;26.324;2022-09-12T10:26:49;98113.31;;;25.79;49.40
21236;BME280;10775;42.678;26.324;2022-09-12T10:29:28;98110.50;;;25.61;48.72
21236;BME280;10775;42.678;26.324;2022-09-12T10:31:58;98095.47;;;25.89;41.84
21236;BME280;10775;42.678;26.324;2022-09-12T10:34:38;98090.09;;;25.89;45.32
21236;BME280;10775;42.678;26.324;2022-09-12T10:37:18;98109.56;;;26.01;47.04
21236;BME280;10775;42.678;26.324;2022-09-12T10:39:54;98084.63;;;25.91;44.02
21236;BME280;10775;42.678;26.324;2022-09-12T10:42:48;98108.22;;;25.37;39.06
21236;BME280;10775;42.678;26.324;2022-09-12T10:45:29;98109.25;;;25.65;47.67
21236;BME280;10775;42.678;26.324;2022-09-12T10:47:57;98096.88;;;25.93;47.55
21236;BME280;10775;42.678;26.324;2022-09-12T10:50:30;98111.41;;;25.91;46.17
21236;BME280;10775;42.678;26.324;2022-09-12T10:53:12;98094.59;;;25.79;44.11
21236;BME280;10775;42.678;26.324;2022-09-12T10:55:41;98097.97;;;25.71;48.36
21236;BME280;10775;42.678;26.324;2022-09-12T11:07:05;98100.69;;;25.91;48.86
21236;BME280;10775;42.678;26.324;2022-09-12T11:10:02;98097.72;;;26.03;47.11
21236;BME280;10775;42.678;26.324;2022-09-12T11:15:37;98084.44;;;26.21;39.81
21236;BME280;10775;42.678;26.324;2022-09-12T11:21:14;98101.94;;;25.96;47.80
21236;BME280;10775;42.678;26.324;2022-09-12T11:24:32;98080.53;;;25.87;41.93
21236;BME280;10775;42.678;26.324;2022-09-12T11:27:24;98095.59;;;25.78;41.01
21236;BME280;10775;42.678;26.324;2022-09-12T11:32:37;98077.84;;;26.06;45.92
21236;BME280;10775;42.678;26.324;2022-09-12T11:35:25;98075.88;;;25.89;38.71
21236;BME280;10775;42.678;26.324;2022-09-12T11:38:29;98075.16;;;25.67;41.99
21236;BME280;10775;42.678;26.324;2022-09-12T11:41:11;98087.84;;;25.94;44.30
21236;BME280;10775;42.678;26.324;2022-09-12T11:43:48;98081.22;;;25.89;46.40
21236;BME280;10775;42.678;26.324;2022-09-12T11:48:57;98074.00;;;26.28;45.24
21236;BME280;10775;42.678;26.324;2022-09-12T11:51:32;98074.59;;;26.02;44.82
21236;BME280;10775;42.678;26.324;2022-09-12T12:02:47;98071.06;;;25.73;41.72
21236;BME280;10775;42.678;26.324;2022-09-12T12:07:55;98051.63;;;26.10;45.79
21236;BME280;10775;42.678;26.324;2022-09-12T12:12:50;98047.81;;;26.02;45.60
21236;BME280;10775;42.678;26.324;2022-09-12T12:15:18;98071.25;;;25.91;43.32
21236;BME280;10775;42.678;26.324;2022-09-12T12:17:52;98073.88;;;25.71;38.27
21236;BME280;10775;42.678;26.324;2022-09-12T12:20:24;98071.19;;;25.71;39.42
21236;BME280;10775;42.678;26.324;2022-09-12T12:22:52;98073.75;;;25.73;40.39
21236;BME280;10775;42.678;26.324;2022-09-12T12:35:42;98055.28;;;26.09;40.85
21236;BME280;10775;42.678;26.324;2022-09-12T12:38:32;98059.09;;;25.96;37.76
21236;BME280;10775;42.678;26.324;2022-09-12T12:43:54;98071.91;;;25.44;39.73
21236;BME280;10775;42.678;26.324;2022-09-12T12:46:23;98062.50;;;25.89;42.29
21236;BME280;10775;42.678;26.324;2022-09-12T12:52:03;98053.72;;;26.16;40.27
21236;BME280;10775;42.678;26.324;2022-09-12T12:59:57;98071.22;;;26.00;40.74
21236;BME280;10775;42.678;26.324;2022-09-12T13:02:30;98053.31;;;26.01;38.52
21236;BME280;10775;42.678;26.324;2022-09-12T13:04:58;98047.41;;;25.97;39.07
21236;BME280;10775;42.678;26.324;2022-09-12T13:07:30;98048.81;;;25.72;41.68
21236;BME280;10775;42.678;26.324;2022-09-12T13:09:58;98060.63;;;25.50;38.41
21236;BME280;10775;42.678;26.324;2022-09-12T13:12:43;98062.06;;;25.54;39.89
21236;BME280;10775;42.678;26.324;2022-09-12T13:15:46;98067.53;;;25.53;37.99
21236;BME280;10775;42.678;26.324;2022-09-12T13:18:17;98077.25;;;25.44;41.03
21236;BME280;10775;42.678;26.324;2022-09-12T13:21:03;98076.53;;;25.62;42.37
21236;BME280;10775;42.678;26.324;2022-09-12T13:23:32;98073.03;;;25.61;38.13
21236;BME280;10775;42.678;26.324;2022-09-12T13:25:59;98081.06;;;25.71;43.40
21236;BME280;10775;42.678;26.324;2022-09-12T13:28:27;98070.50;;;25.50;38.91
21236;BME280;10775;42.678;26.324;2022-09-12T13:31:29;98080.78;;;25.54;43.95
21236;BME280;10775;42.678;26.324;2022-09-12T13:33:54;98061.91;;;25.56;39.77
21236;BME280;10775;42.678;26.324;2022-09-12T13:39:26;98063.75;;;25.75;43.26
21236;BME280;10775;42.678;26.324;2022-09-12T13:44:49;98057.69;;;25.83;45.18
21236;BME280;10775;42.678;26.324;2022-09-12T13:47:24;98064.84;;;25.82;44.29
21236;BME280;10775;42.678;26.324;2022-09-12T13:49:52;98066.97;;;25.78;40.71
21236;BME280;10775;42.678;26.324;2022-09-12T13:52:22;98064.59;;;25.75;42.64
21236;BME280;10775;42.678;26.324;2022-09-12T13:54:56;98056.31;;;25.88;38.31
21236;BME280;10775;42.678;26.324;2022-09-12T13:57:34;98061.78;;;25.57;41.98
21236;BME280;10775;42.678;26.324;2022-09-12T14:00:22;98065.03;;;25.90;43.52
21236;BME280;10775;42.678;26.324;2022-09-12T14:02:49;98075.16;;;25.57;43.28
21236;BME280;10775;42.678;26.324;2022-09-12T14:05:37;98072.19;;;25.80;41.71
21236;BME280;10775;42.678;26.324;2022-09-12T14:08:06;98073.97;;;25.31;41.72
21236;BME280;10775;42.678;26.324;2022-09-12T14:10:36;98084.28;;;24.64;39.99
21236;BME280;10775;42.678;26.324;2022-09-12T14:13:20;98078.31;;;24.82;41.73
21236;BME280;10775;42.678;26.324;2022-09-12T14:15:48;98072.28;;;25.30;44.70
21236;BME280;10775;42.678;26.324;2022-09-12T14:18:29;98073.00;;;25.51;43.42
21236;BME280;10775;42.678;26.324;2022-09-12T14:21:04;98071.75;;;25.55;44.44
21236;BME280;10775;42.678;26.324;2022-09-12T14:23:41;98081.31;;;25.29;40.30
21236;BME280;10775;42.678;26.324;2022-09-12T14:26:10;98085.72;;;25.49;45.00
21236;BME280;10775;42.678;26.324;2022-09-12T14:28:40;98080.88;;;25.33;39.30
21236;BME280;10775;42.678;26.324;2022-09-12T14:31:22;98085.41;;;25.43;40.60
21236;BME280;10775;42.678;26.324;2022-09-12T14:33:51;98083.34;;;25.06;44.10
21236;BME280;10775;42.678;26.324;2022-09-12T14:36:26;98084.06;;;24.77;39.93
21236;BME280;10775;42.678;26.324;2022-09-12T14:39:32;98078.34;;;25.32;42.83
21236;BME280;10775;42.678;26.324;2022-09-12T14:42:11;98080.78;;;25.04;40.89
21236;BME280;10775;42.678;26.324;2022-09-12T14:44:39;98080.59;;;24.35;40.73
21236;BME280;10775;42.678;26.324;2022-09-12T14:47:13;98080.34;;;23.96;41.96
21236;BME280;10775;42.678;26.324;2022-09-12T14:49:43;98078.09;;;24.43;42.24
21236;BME280;10775;42.678;26.324;2022-09-12T14:52:28;98076.63;;;24.81;42.36
21236;BME280;10775;42.678;26.324;2022-09-12T14:54:59;98087.94;;;24.94;43.79
21236;BME280;10775;42.678;26.324;2022-09-12T14:57:37;98071.88;;;24.94;45.41
21236;BME280;10775;42.678;26.324;2022-09-12T15:02:36;98063.94;;;24.21;42.11
21236;BME280;10775;42.678;26.324;2022-09-12T15:09:59;98063.88;;;24.12;42.24
21236;BME280;10775;42.678;26.324;2022-09-12T15:12:25;98068.28;;;23.69;42.79
21236;BME280;10775;42.678;26.324;2022-09-12T15:14:52;98065.69;;;24.32;47.46
21236;BME280;10775;42.678;26.324;2022-09-12T15:17:17;98075.59;;;23.99;47.78
21236;BME280;10775;42.678;26.324;2022-09-12T15:19:43;98070.44;;;24.07;43.55
21236;BME280;10775;42.678;26.324;2022-09-12T15:22:12;98075.53;;;23.14;43.47
21236;BME280;10775;42.678;26.324;2022-09-12T15:24:38;98064.34;;;23.96;42.94